createdAt,value
2018-03-19T00:03:37.027Z,1.34
2018-03-19T00:08:37.999Z,1.01
2018-03-19T00:13:38.956Z,1.20
2018-03-19T00:18:39.912Z,1.18
2018-03-19T00:23:40.845Z,1.28
2018-03-19T00:28:41.824Z,1.07
2018-03-19T00:33:42.762Z,1.20
2018-03-19T00:38:43.748Z,1.02
2018-03-19T00:43:44.665Z,1.13
2018-03-19T00:48:45.606Z,1.27
2018-03-19T00:53:46.526Z,1.30
2018-03-19T00:58:47.477Z,1.21
2018-03-19T01:03:48.407Z,1.26
2018-03-19T01:08:49.330Z,1.15
2018-03-19T01:13:50.266Z,1.10
2018-03-19T01:18:51.206Z,1.03
2018-03-19T01:23:52.141Z,1.10
2018-03-19T01:28:53.123Z,0.98
2018-03-19T01:33:54.045Z,1.00
2018-03-19T01:38:54.965Z,0.94
2018-03-19T01:43:55.895Z,0.92
2018-03-19T01:48:56.834Z,0.89
2018-03-19T01:53:57.760Z,0.39
2018-03-19T01:58:58.713Z,0.82
2018-03-19T02:04:00.312Z,0.87
2018-03-19T02:09:01.256Z,0.83
2018-03-19T02:14:02.198Z,0.75
2018-03-19T02:19:03.135Z,0.78
2018-03-19T02:24:04.125Z,0.77
2018-03-19T02:29:05.052Z,0.75
2018-03-19T02:34:05.979Z,0.77
2018-03-19T02:39:06.942Z,0.84
2018-03-19T02:44:07.871Z,0.76
2018-03-19T02:49:08.801Z,0.68
2018-03-19T02:54:09.780Z,0.56
2018-03-19T02:59:10.713Z,0.74
2018-03-19T03:04:12.550Z,0.69
2018-03-19T03:09:13.497Z,0.59
2018-03-19T03:14:14.442Z,0.57
2018-03-19T03:19:15.373Z,0.51
2018-03-19T03:24:17.281Z,0.48
2018-03-19T03:29:18.256Z,0.49
2018-03-19T03:34:19.189Z,0.55
2018-03-19T03:39:20.116Z,0.49
2018-03-19T03:44:21.055Z,0.39
2018-03-19T03:49:21.980Z,0.33
2018-03-19T03:54:22.914Z,0.36
2018-03-19T03:59:23.839Z,0.45
2018-03-19T04:04:24.767Z,0.52
2018-03-19T04:09:25.690Z,0.38
2018-03-19T04:14:26.635Z,0.44
2018-03-19T04:19:27.548Z,0.36
2018-03-19T04:24:28.480Z,0.36
2018-03-19T04:29:29.449Z,0.34
2018-03-19T04:34:30.378Z,0.21
2018-03-19T04:39:31.300Z,0.14
2018-03-19T04:44:32.246Z,0.09
2018-03-19T04:49:33.152Z,0.12
2018-03-19T04:54:34.086Z,0.08
2018-03-19T04:59:35.022Z,0.07
2018-03-19T05:04:35.945Z,0.03
2018-03-19T05:09:36.906Z,0.09
2018-03-19T05:14:37.903Z,-0.03
2018-03-19T05:19:38.804Z,-0.16
2018-03-19T05:24:39.754Z,-0.24
2018-03-19T05:29:40.720Z,-0.06
2018-03-19T05:34:41.655Z,-0.15
2018-03-19T05:39:42.605Z,0.10
2018-03-19T05:44:43.567Z,0.51
2018-03-19T05:49:44.524Z,0.93
2018-03-19T05:54:45.460Z,1.21
2018-03-19T05:59:46.386Z,0.85
2018-03-19T06:04:47.332Z,1.25
2018-03-19T06:09:48.295Z,1.16
2018-03-19T06:14:49.250Z,0.88
2018-03-19T06:19:50.188Z,0.59
2018-03-19T06:24:51.139Z,0.59
2018-03-19T06:29:52.136Z,0.58
2018-03-19T06:34:53.082Z,0.55
2018-03-19T06:39:54.023Z,0.50
2018-03-19T06:44:55.028Z,0.49
2018-03-19T06:49:55.960Z,0.75
2018-03-19T06:54:56.879Z,1.01
2018-03-19T06:59:57.836Z,1.13
2018-03-19T07:04:58.781Z,1.34
2018-03-19T07:09:59.736Z,1.50
2018-03-19T07:15:00.666Z,1.64
2018-03-19T07:20:01.594Z,1.39
2018-03-19T07:25:02.569Z,1.21
2018-03-19T07:30:03.625Z,1.46
2018-03-19T07:35:04.562Z,1.37
2018-03-19T07:40:05.513Z,1.93
2018-03-19T07:45:06.477Z,1.56
2018-03-19T07:50:07.452Z,1.87
2018-03-19T07:55:08.380Z,2.45
2018-03-19T08:00:09.334Z,2.03
2018-03-19T08:05:10.266Z,2.24
2018-03-19T08:10:11.192Z,2.77
2018-03-19T08:15:12.124Z,2.66
2018-03-19T08:20:13.848Z,1.23
2018-03-19T08:25:14.804Z,1.56
2018-03-19T08:30:15.798Z,1.26
2018-03-19T08:35:16.761Z,2.40
2018-03-19T08:40:17.726Z,2.73
2018-03-19T08:45:18.655Z,2.45
2018-03-19T08:50:19.622Z,3.29
2018-03-19T08:55:20.573Z,2.95
2018-03-19T09:00:21.527Z,2.59
2018-03-19T09:05:22.465Z,3.86
2018-03-19T09:10:23.400Z,4.11
2018-03-19T09:15:24.342Z,4.17
2018-03-19T09:20:25.276Z,3.59
2018-03-19T09:25:26.250Z,4.00
2018-03-19T09:30:27.249Z,3.44
2018-03-19T09:35:28.217Z,4.39
2018-03-19T09:40:30.065Z,4.64
2018-03-19T09:45:31.005Z,4.64
2018-03-19T09:50:31.973Z,4.76
2018-03-19T09:55:32.947Z,3.65
2018-03-19T10:00:33.888Z,3.64
2018-03-19T10:05:34.840Z,4.53
2018-03-19T10:10:35.782Z,4.60
2018-03-19T10:15:36.741Z,5.05
2018-03-19T10:20:37.693Z,4.51
2018-03-19T10:25:38.664Z,5.11
2018-03-19T10:30:39.654Z,5.40
2018-03-19T10:35:40.615Z,5.30
2018-03-19T10:40:41.555Z,5.75
2018-03-19T10:45:42.554Z,5.46
2018-03-19T10:50:43.530Z,5.37
2018-03-19T10:55:44.488Z,5.96
2018-03-19T11:00:45.741Z,6.48
2018-03-19T11:05:49.645Z,5.86
2018-03-19T11:10:50.597Z,6.33
2018-03-19T11:15:51.553Z,7.07
2018-03-19T11:20:52.861Z,7.36
2018-03-19T11:25:53.858Z,7.74
2018-03-19T11:30:54.828Z,8.25
2018-03-19T11:35:55.790Z,8.02
2018-03-19T11:40:56.746Z,7.41
2018-03-19T11:45:57.688Z,8.29
2018-03-19T11:50:58.625Z,8.55
2018-03-19T11:55:59.609Z,8.90
2018-03-19T12:01:00.550Z,9.35
2018-03-19T12:28:27.525Z,10.58
2018-03-19T12:33:28.531Z,10.69
2018-03-19T12:38:30.374Z,9.92
2018-03-19T12:43:31.340Z,10.99
2018-03-19T12:48:32.296Z,11.36
2018-03-19T12:53:33.986Z,11.31
2018-03-19T12:58:34.950Z,12.50
2018-03-19T13:03:35.897Z,12.82
2018-03-19T13:08:36.875Z,13.45
2018-03-19T13:13:37.818Z,13.71
2018-03-19T13:18:38.781Z,13.68
2018-03-19T13:23:39.766Z,13.48
2018-03-19T13:28:40.706Z,13.35
2018-03-19T13:33:41.701Z,12.22
2018-03-19T13:38:42.634Z,13.36
2018-03-19T13:43:43.549Z,14.13
2018-03-19T13:48:44.475Z,13.11
2018-03-19T13:53:45.401Z,10.38
2018-03-19T13:58:46.363Z,12.79
2018-03-19T14:03:48.094Z,13.42
2018-03-19T14:08:49.653Z,14.42
2018-03-19T14:13:50.592Z,14.02
2018-03-19T14:18:51.554Z,13.15
2018-03-19T14:23:52.493Z,14.18
2018-03-19T14:28:53.437Z,13.67
2018-03-19T14:33:54.453Z,14.48
2018-03-19T14:38:55.382Z,13.37
2018-03-19T14:43:56.329Z,14.64
2018-03-19T14:48:57.305Z,15.14
2018-03-19T14:53:58.246Z,14.13
2018-03-19T14:58:59.218Z,13.39
2018-03-19T15:04:01.154Z,13.57
2018-03-19T15:09:02.112Z,14.22
2018-03-19T15:14:03.047Z,15.33
2018-03-19T15:19:04.025Z,13.78
2018-03-19T15:24:04.997Z,13.67
2018-03-19T15:29:05.937Z,12.22
2018-03-19T15:34:06.927Z,11.50
2018-03-19T15:39:07.869Z,10.62
2018-03-19T15:44:08.824Z,10.67
2018-03-19T15:49:09.776Z,10.29
2018-03-19T15:54:10.725Z,10.18
2018-03-19T15:59:11.671Z,9.95
2018-03-19T16:04:12.649Z,10.00
2018-03-19T16:09:13.618Z,9.60
2018-03-19T16:14:14.589Z,8.80
2018-03-19T16:19:15.591Z,9.05
2018-03-19T16:24:16.540Z,8.34
2018-03-19T16:29:17.521Z,6.80
2018-03-19T16:34:18.550Z,8.08
2018-03-19T16:39:19.504Z,7.84
2018-03-19T16:44:20.482Z,7.43
2018-03-19T16:49:21.474Z,7.63
2018-03-19T16:54:22.431Z,7.41
2018-03-19T16:59:23.470Z,6.61
2018-03-19T17:04:24.348Z,6.42
2018-03-19T17:09:25.310Z,6.29
2018-03-19T17:14:26.264Z,5.49
2018-03-19T17:19:27.200Z,5.95
2018-03-19T17:24:35.102Z,6.13
2018-03-19T17:29:36.868Z,6.08
2018-03-19T17:34:38.751Z,5.81
2018-03-19T17:39:39.725Z,5.66
2018-03-19T17:44:40.699Z,5.51
2018-03-19T17:49:41.651Z,5.39
2018-03-19T17:54:42.604Z,5.30
2018-03-19T17:59:43.573Z,5.01
2018-03-19T18:04:44.552Z,4.78
2018-03-19T18:09:45.674Z,4.85
2018-03-19T18:14:47.635Z,4.44
2018-03-19T18:19:48.650Z,4.63
2018-03-19T18:24:49.654Z,4.38
2018-03-19T18:29:50.638Z,3.95
2018-03-19T18:34:51.701Z,4.01
2018-03-19T18:39:52.695Z,4.02
2018-03-19T18:45:00.528Z,4.38
2018-03-19T18:50:01.540Z,3.67
2018-03-19T18:55:02.563Z,3.88
2018-03-19T19:00:03.591Z,3.95
2018-03-19T19:05:04.583Z,3.52
2018-03-19T19:10:05.549Z,3.28
2018-03-19T19:15:06.612Z,3.06
2018-03-19T19:20:07.583Z,3.21
2018-03-19T19:25:08.535Z,3.65
2018-03-19T19:30:09.526Z,3.54
2018-03-19T19:35:10.541Z,3.49
2018-03-19T19:40:11.529Z,3.67
2018-03-19T19:45:12.476Z,3.45
2018-03-19T19:50:13.447Z,3.58
2018-03-19T19:55:14.452Z,3.17
2018-03-19T20:00:15.465Z,3.76
2018-03-19T20:05:16.449Z,3.20
2018-03-19T20:10:17.492Z,3.76
2018-03-19T20:15:18.525Z,3.44
2018-03-19T20:20:19.509Z,4.04
2018-03-19T20:25:20.529Z,3.59
2018-03-19T20:30:21.562Z,3.30
2018-03-19T20:35:22.613Z,3.56
2018-03-19T20:40:23.610Z,3.22
2018-03-19T20:45:24.590Z,3.33
2018-03-19T20:50:25.561Z,2.86
2018-03-19T20:55:26.537Z,2.82
2018-03-19T21:00:27.521Z,2.60
2018-03-19T21:05:28.517Z,3.24
2018-03-19T21:10:29.501Z,2.93
2018-03-19T21:15:30.457Z,3.72
2018-03-19T21:20:31.437Z,3.50
2018-03-19T21:25:32.405Z,3.52
2018-03-19T21:30:33.570Z,4.09
2018-03-19T21:35:34.573Z,3.29
2018-03-19T21:40:35.537Z,3.45
2018-03-19T21:45:36.488Z,3.89
2018-03-19T21:50:37.441Z,3.64
2018-03-19T21:55:38.410Z,3.70
2018-03-19T22:00:39.381Z,4.05
2018-03-19T22:05:40.347Z,4.22
2018-03-19T22:10:41.296Z,4.02
2018-03-19T22:15:42.261Z,3.99
2018-03-19T22:20:43.230Z,4.06
2018-03-19T22:25:44.204Z,3.93
2018-03-19T22:30:45.214Z,4.34
2018-03-19T22:35:46.193Z,4.55
2018-03-19T22:40:47.114Z,4.51
2018-03-19T22:45:48.071Z,4.53
2018-03-19T22:50:49.004Z,4.44
2018-03-19T22:55:50.653Z,4.08
2018-03-19T23:00:51.613Z,4.65
2018-03-19T23:05:52.553Z,4.42
2018-03-19T23:10:53.476Z,4.13
2018-03-19T23:15:54.432Z,4.09
2018-03-19T23:20:55.347Z,4.54
2018-03-19T23:25:56.279Z,4.61
2018-03-19T23:30:57.263Z,4.69
2018-03-19T23:35:58.243Z,4.61
2018-03-19T23:40:59.161Z,4.89
2018-03-19T23:46:00.089Z,4.64
2018-03-19T23:51:01.031Z,4.63
2018-03-19T23:56:01.959Z,4.85
